createdAt,value
2023-02-17T00:00:50.766Z,8.63
2023-02-17T00:04:54.014Z,7.43
2023-02-17T00:08:59.488Z,8.60
2023-02-17T00:13:02.395Z,10.20
2023-02-17T00:17:05.057Z,7.87
2023-02-17T00:21:18.879Z,6.20
2023-02-17T00:25:22.917Z,6.47
2023-02-17T00:29:25.846Z,7.10
2023-02-17T00:33:28.727Z,6.57
2023-02-17T00:37:31.399Z,7.67
2023-02-17T00:41:35.670Z,7.77
2023-02-17T00:45:38.331Z,7.90
2023-02-17T00:49:40.963Z,7.20
2023-02-17T00:53:44.072Z,7.37
2023-02-17T00:57:48.309Z,6.70
2023-02-17T01:01:51.006Z,7.23
2023-02-17T01:05:54.953Z,7.27
2023-02-17T01:09:57.857Z,6.90
2023-02-17T01:14:06.152Z,6.77
2023-02-17T01:18:08.927Z,6.73
2023-02-17T01:22:11.956Z,6.10
2023-02-17T01:26:15.716Z,6.37
2023-02-17T01:30:19.970Z,5.97
2023-02-17T01:34:22.644Z,5.97
2023-02-17T01:38:25.571Z,6.07
2023-02-17T01:42:28.476Z,5.37
2023-02-17T01:46:34.737Z,5.53
2023-02-17T01:50:40.495Z,5.30
2023-02-17T01:54:47.043Z,5.40
2023-02-17T01:58:52.963Z,5.10
2023-02-17T02:02:57.185Z,4.90
2023-02-17T02:07:00.326Z,4.87
2023-02-17T02:11:03.241Z,4.50
2023-02-17T02:15:08.941Z,4.27
2023-02-17T02:19:39.966Z,4.07
2023-02-17T02:24:03.499Z,5.33
2023-02-17T02:28:12.229Z,4.50
2023-02-17T02:32:31.308Z,4.70
2023-02-17T02:36:35.624Z,4.57
2023-02-17T02:40:42.392Z,4.53
2023-02-17T02:44:45.041Z,5.07
2023-02-17T02:48:52.701Z,4.20
2023-02-17T02:53:05.088Z,4.57
2023-02-17T02:57:18.733Z,4.57
2023-02-17T03:01:28.633Z,4.70
2023-02-17T03:05:39.492Z,4.97
2023-02-17T03:09:42.530Z,4.73
2023-02-17T03:13:45.177Z,4.90
2023-02-17T03:17:48.239Z,5.00
2023-02-17T03:21:54.528Z,5.20
2023-02-17T03:25:58.905Z,5.50
2023-02-17T03:30:01.610Z,5.43
2023-02-17T03:34:04.751Z,6.07
2023-02-17T03:38:08.757Z,5.27
2023-02-17T03:42:11.408Z,4.97
2023-02-17T03:46:14.951Z,5.40
2023-02-17T03:50:17.858Z,6.03
2023-02-17T03:54:22.392Z,5.90
2023-02-17T03:58:25.108Z,5.73
2023-02-17T04:02:27.871Z,5.90
2023-02-17T04:06:30.743Z,6.33
2023-02-17T04:10:34.723Z,5.70
2023-02-17T04:14:39.463Z,5.70
2023-02-17T04:18:42.159Z,6.20
2023-02-17T04:22:46.226Z,5.20
2023-02-17T04:26:50.230Z,5.00
2023-02-17T04:30:54.369Z,3.90
2023-02-17T04:34:57.121Z,4.30
2023-02-17T04:38:59.751Z,4.03
2023-02-17T04:43:04.334Z,3.87
2023-02-17T04:47:07.016Z,4.03
2023-02-17T04:51:09.750Z,4.00
2023-02-17T04:55:12.450Z,3.63
2023-02-17T04:59:16.829Z,3.70
2023-02-17T05:03:20.556Z,4.07
2023-02-17T05:07:23.724Z,3.23
2023-02-17T05:11:26.691Z,3.50
2023-02-17T05:15:33.696Z,3.37
2023-02-17T05:19:37.665Z,3.50
2023-02-17T05:23:41.321Z,3.67
2023-02-17T05:27:44.060Z,3.30
2023-02-17T05:31:48.254Z,3.20
2023-02-17T05:35:51.231Z,3.30
2023-02-17T05:39:54.174Z,3.13
2023-02-17T05:43:59.484Z,2.97
2023-02-17T05:48:06.482Z,3.17
2023-02-17T05:52:09.429Z,3.50
2023-02-17T05:56:16.579Z,3.40
2023-02-17T06:00:19.677Z,3.23
2023-02-17T06:04:24.025Z,3.10
2023-02-17T06:08:26.749Z,3.17
2023-02-17T06:12:29.433Z,2.87
2023-02-17T06:16:32.182Z,3.23
2023-02-17T06:20:36.289Z,3.50
2023-02-17T06:24:38.977Z,3.23
2023-02-17T06:28:41.664Z,3.40
2023-02-17T06:32:44.685Z,2.80
2023-02-17T06:36:51.685Z,2.93
2023-02-17T06:40:54.955Z,3.20
2023-02-17T06:44:57.732Z,3.10
2023-02-17T06:49:01.437Z,3.00
2023-02-17T06:53:09.623Z,2.70
2023-02-17T06:57:12.279Z,2.57
2023-02-17T07:01:17.815Z,2.33
2023-02-17T07:05:20.646Z,2.50
2023-02-17T07:09:25.001Z,2.00
2023-02-17T07:13:27.918Z,2.43
2023-02-17T07:17:30.870Z,2.43
2023-02-17T07:21:33.541Z,2.27
2023-02-17T07:25:37.625Z,2.00
2023-02-17T07:29:40.572Z,2.30
2023-02-17T07:33:44.034Z,2.30
2023-02-17T07:37:46.709Z,2.27
2023-02-17T07:41:51.214Z,2.17
2023-02-17T07:45:57.662Z,2.40
2023-02-17T07:50:01.641Z,2.37
2023-02-17T07:54:04.657Z,2.60
2023-02-17T07:58:12.062Z,2.37
2023-02-17T08:02:15.002Z,2.33
2023-02-17T08:06:18.836Z,2.93
2023-02-17T08:10:42.023Z,2.90
2023-02-17T08:14:46.104Z,2.30
2023-02-17T08:18:49.054Z,2.57
2023-02-17T08:22:51.693Z,2.17
2023-02-17T08:26:54.409Z,2.50
2023-02-17T08:30:58.896Z,2.57
2023-02-17T08:35:01.799Z,2.33
2023-02-17T08:39:05.152Z,2.03
2023-02-17T08:43:08.929Z,2.80
2023-02-17T08:47:13.345Z,2.50
2023-02-17T08:51:17.556Z,2.33
2023-02-17T08:55:22.852Z,2.13
2023-02-17T08:59:25.660Z,2.13
2023-02-17T09:03:30.158Z,2.30
2023-02-17T09:07:33.118Z,2.43
2023-02-17T09:11:35.834Z,2.23
2023-02-17T09:15:38.557Z,2.20
2023-02-17T09:19:42.689Z,2.60
2023-02-17T09:23:45.538Z,2.50
2023-02-17T09:27:48.237Z,2.33
2023-02-17T09:31:51.273Z,2.30
2023-02-17T09:35:56.768Z,2.33
2023-02-17T09:39:59.473Z,2.60
2023-02-17T09:44:06.488Z,2.47
2023-02-17T09:48:11.953Z,2.67
2023-02-17T09:52:19.490Z,2.40
2023-02-17T09:56:26.359Z,2.63
2023-02-17T10:00:32.011Z,2.40
2023-02-17T10:04:37.434Z,2.63
2023-02-17T10:08:45.524Z,2.50
2023-02-17T10:12:51.896Z,2.40
2023-02-17T10:16:58.639Z,2.30
2023-02-17T10:21:05.123Z,2.10
2023-02-17T10:25:16.636Z,2.27
2023-02-17T10:29:31.539Z,1.90
2023-02-17T10:33:37.306Z,1.97
2023-02-17T10:37:47.226Z,1.87
2023-02-17T10:41:52.831Z,2.00
2023-02-17T10:45:55.717Z,1.90
2023-02-17T10:50:01.217Z,1.77
2023-02-17T10:54:09.234Z,1.70
2023-02-17T10:58:16.981Z,1.70
2023-02-17T11:02:21.722Z,2.50
2023-02-17T11:06:28.294Z,2.27
2023-02-17T11:10:33.695Z,1.60
2023-02-17T11:14:45.081Z,2.70
2023-02-17T11:18:49.243Z,2.03
2023-02-17T11:23:02.714Z,2.50
2023-02-17T11:27:11.978Z,1.60
2023-02-17T11:31:24.904Z,2.00
2023-02-17T11:35:46.144Z,1.83
2023-02-17T11:39:50.166Z,2.10
2023-02-17T11:43:54.561Z,2.20
2023-02-17T11:48:13.175Z,2.27
2023-02-17T11:52:24.128Z,1.80
2023-02-17T11:56:32.146Z,1.60
2023-02-17T12:00:42.151Z,1.63
2023-02-17T12:04:55.436Z,1.43
2023-02-17T12:09:14.750Z,1.60
2023-02-17T12:13:29.285Z,1.60
2023-02-17T12:17:40.905Z,1.40
2023-02-17T12:21:55.510Z,1.37
2023-02-17T12:26:00.861Z,1.40
2023-02-17T12:30:14.291Z,1.40
2023-02-17T12:34:22.784Z,1.37
2023-02-17T12:38:28.839Z,1.50
2023-02-17T12:42:33.706Z,1.43
2023-02-17T12:46:41.210Z,1.40
2023-02-17T12:50:52.766Z,1.50
2023-02-17T12:54:59.776Z,1.40
2023-02-17T12:59:12.314Z,1.60
2023-02-17T13:03:15.945Z,1.50
2023-02-17T13:07:39.683Z,1.83
2023-02-17T13:11:46.474Z,2.53
2023-02-17T13:15:49.555Z,2.30
2023-02-17T13:20:06.837Z,2.20
2023-02-17T13:24:15.667Z,2.20
2023-02-17T13:28:38.802Z,2.20
2023-02-17T13:32:41.948Z,2.70
2023-02-17T13:36:44.933Z,5.70
2023-02-17T13:40:48.044Z,6.23
2023-02-17T13:44:55.390Z,5.23
2023-02-17T13:49:07.325Z,3.70
2023-02-17T13:53:23.898Z,2.90
2023-02-17T13:57:31.210Z,4.10
2023-02-17T14:01:38.547Z,2.47
2023-02-17T14:05:44.521Z,1.73
2023-02-17T14:09:54.057Z,1.97
2023-02-17T14:13:58.385Z,1.80
2023-02-17T14:18:14.713Z,1.60
2023-02-17T14:22:28.636Z,1.80
2023-02-17T14:26:41.161Z,1.60
2023-02-17T14:30:43.968Z,1.70
2023-02-17T14:34:48.062Z,1.60
2023-02-17T14:38:56.306Z,1.77
2023-02-17T14:42:59.218Z,1.60
2023-02-17T14:47:02.452Z,1.40
2023-02-17T14:51:13.547Z,1.27
2023-02-17T14:55:18.530Z,1.37
2023-02-17T14:59:21.299Z,1.00
2023-02-17T15:03:24.270Z,1.30
2023-02-17T15:07:28.759Z,1.57
2023-02-17T15:11:35.066Z,1.30
2023-02-17T15:15:39.287Z,1.30
2023-02-17T15:19:44.717Z,1.40
2023-02-17T15:23:48.973Z,1.40
2023-02-17T15:27:52.234Z,1.50
2023-02-17T15:31:56.556Z,1.40
2023-02-17T15:35:59.504Z,1.50
2023-02-17T15:40:04.023Z,1.50
2023-02-17T15:44:08.284Z,1.40
2023-02-17T15:48:14.085Z,1.50
2023-02-17T15:52:17.092Z,1.67
2023-02-17T15:56:22.960Z,1.50
2023-02-17T16:00:27.608Z,1.70
2023-02-17T16:04:30.389Z,1.73
2023-02-17T16:08:33.148Z,2.10
2023-02-17T16:12:37.354Z,2.00
2023-02-17T16:16:40.443Z,1.80
2023-02-17T16:20:43.222Z,1.80
2023-02-17T16:24:46.111Z,2.00
2023-02-17T16:28:50.200Z,2.33
2023-02-17T16:32:53.429Z,1.60
2023-02-17T16:36:58.253Z,1.80
2023-02-17T16:41:01.181Z,2.07
2023-02-17T16:45:05.673Z,2.00
2023-02-17T16:49:19.742Z,1.80
2023-02-17T16:53:22.809Z,1.77
2023-02-17T16:57:26.419Z,3.43
2023-02-17T17:01:32.655Z,2.80
2023-02-17T17:05:35.698Z,3.40
2023-02-17T17:09:38.694Z,2.43
2023-02-17T17:13:41.438Z,3.10
2023-02-17T17:17:47.191Z,2.90
2023-02-17T17:21:50.035Z,2.50
2023-02-17T17:25:52.700Z,2.97
2023-02-17T17:29:55.770Z,3.43
2023-02-17T17:34:00.551Z,2.90
2023-02-17T17:38:03.426Z,2.97
2023-02-17T17:42:06.245Z,3.27
2023-02-17T17:46:14.545Z,2.70
2023-02-17T17:50:26.043Z,2.70
2023-02-17T17:54:28.748Z,2.90
2023-02-17T17:58:31.736Z,3.00
2023-02-17T18:02:34.843Z,3.30
2023-02-17T18:06:41.665Z,3.53
2023-02-17T18:10:47.613Z,3.20
2023-02-17T18:14:53.809Z,2.90
2023-02-17T18:18:57.609Z,3.10
2023-02-17T18:23:01.742Z,2.90
2023-02-17T18:27:05.052Z,2.80
2023-02-17T18:31:08.844Z,2.70
2023-02-17T18:35:12.266Z,2.80
2023-02-17T18:39:16.478Z,3.00
2023-02-17T18:43:19.438Z,2.70
2023-02-17T18:47:22.252Z,2.90
2023-02-17T18:51:27.461Z,3.20
2023-02-17T18:55:31.462Z,2.73
2023-02-17T18:59:34.485Z,2.97
2023-02-17T19:03:37.181Z,2.77
2023-02-17T19:07:40.200Z,4.83
2023-02-17T19:11:47.447Z,4.53
2023-02-17T19:15:50.285Z,5.67
2023-02-17T19:19:54.016Z,4.33
2023-02-17T19:23:58.358Z,3.60
2023-02-17T19:28:02.396Z,4.13
2023-02-17T19:32:06.049Z,4.90
2023-02-17T19:36:10.075Z,3.97
2023-02-17T19:40:13.082Z,3.80
2023-02-17T19:44:17.436Z,3.57
2023-02-17T19:48:24.114Z,3.67
2023-02-17T19:52:28.133Z,3.40
2023-02-17T19:56:33.293Z,3.50
2023-02-17T20:00:37.684Z,3.13
2023-02-17T20:04:40.407Z,3.10
2023-02-17T20:08:47.074Z,2.93
2023-02-17T20:12:50.230Z,3.50
2023-02-17T20:16:56.873Z,2.60
2023-02-17T20:20:59.585Z,2.73
2023-02-17T20:25:02.443Z,2.57
2023-02-17T20:29:07.223Z,2.80
2023-02-17T20:33:11.668Z,2.30
2023-02-17T20:37:14.424Z,2.90
2023-02-17T20:41:18.595Z,3.00
2023-02-17T20:45:21.384Z,2.47
2023-02-17T20:49:26.298Z,2.47
2023-02-17T20:53:29.073Z,2.40
2023-02-17T20:57:32.553Z,2.40
2023-02-17T21:01:35.306Z,2.63
2023-02-17T21:05:39.668Z,2.50
2023-02-17T21:09:42.538Z,2.20
2023-02-17T21:13:45.543Z,2.53
2023-02-17T21:17:48.646Z,2.40
2023-02-17T21:21:53.232Z,2.50
2023-02-17T21:25:56.004Z,2.90
2023-02-17T21:29:58.805Z,2.60
2023-02-17T21:34:02.439Z,2.30
2023-02-17T21:38:08.116Z,2.40
2023-02-17T21:42:11.001Z,2.53
2023-02-17T21:46:15.330Z,2.40
2023-02-17T21:50:18.527Z,2.40
2023-02-17T21:54:26.459Z,2.50
2023-02-17T21:58:29.669Z,2.50
2023-02-17T22:02:32.361Z,2.50
2023-02-17T22:06:37.001Z,2.80
2023-02-17T22:10:41.758Z,2.97
2023-02-17T22:14:44.591Z,2.57
2023-02-17T22:18:47.302Z,2.70
2023-02-17T22:22:50.035Z,3.13
2023-02-17T22:26:54.446Z,3.10
2023-02-17T22:30:57.775Z,3.30
2023-02-17T22:35:00.505Z,3.20
2023-02-17T22:39:03.603Z,3.33
2023-02-17T22:43:07.933Z,3.43
2023-02-17T22:47:10.754Z,3.17
2023-02-17T22:51:15.638Z,3.50
2023-02-17T22:55:18.434Z,3.50
2023-02-17T22:59:22.559Z,3.20
2023-02-17T23:03:25.417Z,3.50
2023-02-17T23:07:28.238Z,3.13
2023-02-17T23:11:49.859Z,3.10
2023-02-17T23:15:54.182Z,2.70
2023-02-17T23:19:57.123Z,2.57
2023-02-17T23:23:59.769Z,3.07
2023-02-17T23:28:03.627Z,2.90
2023-02-17T23:32:07.965Z,2.70
2023-02-17T23:36:11.059Z,3.10
2023-02-17T23:40:14.899Z,2.90
2023-02-17T23:44:17.710Z,2.90
2023-02-17T23:48:21.791Z,2.67
2023-02-17T23:52:24.733Z,2.80
2023-02-17T23:56:29.803Z,2.60
